Terminal Aerodrome Forecast
Issued by NWS

Home | Current Version | Previous Version | Text Only | Print | Product List | Glossary On
Versions: 1 2 3 4 5 6 7 8 9 10 11 12 13 14 15 16 17 18 19 20 21 22 23 24 25 26 27 28 29 30 31 32 33 34
000
FTUS43 KDTX 041544 AAB
TAFYIP
TAF AMD
KYIP 041544Z 0416/0512 23013KT P6SM BKN060 OVC100
     FM042100 30013KT P6SM BKN050
     FM050200 04008KT P6SM BKN080 OVC200
     FM050800 09005KT 6SM -SHRA OVC040=

USA.gov is the U.S. government's official web portal to all federal, state and local government web resources and services.